PWSweather.com
Personal Weather Stations
Station Observations

ChardChardGB

Lat: 50.877408, Lon: -2.94964741

Elevation: 341

Station Type: WS3083

http://www.merriott-astro.co.uk/weather/index.htm

High Low Average
Temperature 52.0°F11.1°C 41.4°F5.2°C 45.7°F7.6°C
Dew Point 38.9°F3.8°C 33.1°F0.6°C 36.5°F2.5°C
Winds 20.5 mph 33.0 kmh Calm Calm 8.0 mph SW12.9 kmh SW
Wind Gusts 29.8 mph48.0 kmh -- 12.0 mph19.3 kmh
Humidity 81% 54% 71%
Pressure 29.70 in1005.8 mb 29.48 in998.3 mb -
Precipitation 0.13 in3.3 mm - -
Hour Temp Dew Point Humidity Winds Wind Gusts Pressure Precip Precip Rate Daily Precip Total
12:00 AM 46.0°F7.8°C 35.7°F2.1°C 67% 14.9 mph SSW24.0 kmh SSW 22.8 mph36.7 kmh 29.48 in998.3 mb 0.01 in0.3 mm 0.00 in0.0 mm 0.01 in0.3 mm
12:10 AM 46.0°F7.8°C 35.3°F1.8°C 66% 14.8 mph SW23.8 kmh SW 22.1 mph35.6 kmh 29.48 in998.3 mb 0.00 in0.0 mm 0.00 in0.0 mm 0.01 in0.3 mm
12:20 AM 45.9°F7.7°C 35.2°F1.8°C 66% 10.9 mph SSW17.5 kmh SSW 14.5 mph23.3 kmh 29.48 in998.3 mb 0.00 in0.0 mm 0.00 in0.0 mm 0.01 in0.3 mm
12:30 AM 45.5°F7.5°C 35.2°F1.8°C 67% 13.8 mph S22.2 kmh S 22.1 mph35.6 kmh 29.48 in998.3 mb 0.00 in0.0 mm 0.00 in0.0 mm 0.01 in0.3 mm
12:40 AM 45.0°F7.2°C 36.8°F2.7°C 73% 11.1 mph WSW17.9 kmh WSW 13.6 mph21.9 kmh 29.48 in998.3 mb 0.00 in0.0 mm 0.00 in0.0 mm 0.01 in0.3 mm
12:50 AM 44.8°F7.1°C 37.0°F2.8°C 74% 13.9 mph S22.4 kmh S 19.7 mph31.7 kmh 29.49 in998.6 mb 0.00 in0.0 mm 0.00 in0.0 mm 0.01 in0.3 mm
01:00 AM 44.8°F7.1°C 36.3°F2.4°C 72% 16.9 mph WSW27.2 kmh WSW 22.1 mph35.6 kmh 29.49 in998.6 mb 0.00 in0.0 mm 0.00 in0.0 mm 0.01 in0.3 mm
01:10 AM 44.6°F7.0°C 35.8°F2.1°C 71% 18.0 mph WSW29.0 kmh WSW 25.9 mph41.7 kmh 29.50 in999.0 mb 0.00 in0.0 mm 0.00 in0.0 mm 0.01 in0.3 mm
01:20 AM 44.4°F6.9°C 35.6°F2.0°C 71% 16.9 mph WSW27.2 kmh WSW 20.6 mph33.2 kmh 29.50 in999.0 mb 0.00 in0.0 mm 0.00 in0.0 mm 0.01 in0.3 mm
01:30 AM 44.2°F6.8°C 35.1°F1.7°C 70% 17.1 mph SW27.5 kmh SW 27.3 mph43.9 kmh 29.50 in999.0 mb 0.00 in0.0 mm 0.00 in0.0 mm 0.01 in0.3 mm
01:40 AM 43.7°F6.5°C 34.6°F1.4°C 70% 20.5 mph WSW33.0 kmh WSW 28.2 mph45.4 kmh 29.51 in999.3 mb 0.01 in0.3 mm 0.06 in1.5 mm 0.01 in0.3 mm
01:50 AM 43.5°F6.4°C 34.4°F1.3°C 70% 17.4 mph SW28.0 kmh SW 22.1 mph35.6 kmh 29.51 in999.3 mb 0.01 in0.3 mm 0.00 in0.0 mm 0.01 in0.3 mm
02:00 AM 43.7°F6.5°C 34.9°F1.6°C 71% 19.8 mph SW31.9 kmh SW 29.8 mph48.0 kmh 29.52 in999.7 mb 0.01 in0.3 mm 0.00 in0.0 mm 0.01 in0.3 mm
02:10 AM 43.3°F6.3°C 34.9°F1.6°C 72% 17.0 mph WSW27.4 kmh WSW 22.1 mph35.6 kmh 29.53 in1000.0 mb 0.01 in0.3 mm 0.00 in0.0 mm 0.01 in0.3 mm
02:20 AM 43.3°F6.3°C 34.9°F1.6°C 72% 14.2 mph W22.9 kmh W 22.8 mph36.7 kmh 29.55 in1000.7 mb 0.01 in0.3 mm 0.00 in0.0 mm 0.01 in0.3 mm
02:30 AM 43.2°F6.2°C 34.8°F1.6°C 72% 13.8 mph W22.2 kmh W 16.8 mph27.0 kmh 29.55 in1000.7 mb 0.01 in0.3 mm 0.00 in0.0 mm 0.01 in0.3 mm
02:40 AM 43.5°F6.4°C 34.0°F1.1°C 69% 14.1 mph NW22.7 kmh NW 20.6 mph33.2 kmh 29.55 in1000.7 mb 0.00 in0.0 mm 0.00 in0.0 mm 0.01 in0.3 mm
02:50 AM 43.7°F6.5°C 33.8°F1.0°C 68% 12.3 mph W19.8 kmh W 19.7 mph31.7 kmh 29.55 in1000.7 mb 0.00 in0.0 mm 0.00 in0.0 mm 0.01 in0.3 mm
03:00 AM 43.5°F6.4°C 33.7°F0.9°C 68% 11.3 mph SW18.2 kmh SW 16.8 mph27.0 kmh 29.55 in1000.7 mb 0.00 in0.0 mm 0.00 in0.0 mm 0.01 in0.3 mm
03:10 AM 43.7°F6.5°C 33.5°F0.8°C 67% 12.8 mph S20.6 kmh S 22.1 mph35.6 kmh 29.55 in1000.7 mb 0.00 in0.0 mm 0.00 in0.0 mm 0.01 in0.3 mm
03:20 AM 43.7°F6.5°C 33.1°F0.6°C 66% 11.2 mph NW18.0 kmh NW 19.0 mph30.6 kmh 29.56 in1001.0 mb 0.00 in0.0 mm 0.00 in0.0 mm 0.01 in0.3 mm
03:30 AM 43.7°F6.5°C 33.1°F0.6°C 66% 9.3 mph WNW15.0 kmh WNW 13.0 mph20.9 kmh 29.56 in1001.0 mb 0.00 in0.0 mm 0.00 in0.0 mm 0.01 in0.3 mm
03:40 AM 43.5°F6.4°C 33.3°F0.7°C 67% 8.1 mph SW13.0 kmh SW 9.8 mph15.8 kmh 29.56 in1001.0 mb 0.00 in0.0 mm 0.00 in0.0 mm 0.01 in0.3 mm
03:50 AM 43.9°F6.6°C 34.7°F1.5°C 70% 8.7 mph WSW14.0 kmh WSW 11.4 mph18.3 kmh 29.57 in1001.4 mb 0.00 in0.0 mm 0.00 in0.0 mm 0.01 in0.3 mm
04:00 AM 43.9°F6.6°C 35.1°F1.7°C 71% 7.3 mph SSW11.7 kmh SSW 11.4 mph18.3 kmh 29.57 in1001.4 mb 0.00 in0.0 mm 0.00 in0.0 mm 0.01 in0.3 mm
04:10 AM 43.9°F6.6°C 35.1°F1.7°C 71% 7.3 mph SW11.7 kmh SW 10.7 mph17.2 kmh 29.58 in1001.7 mb 0.00 in0.0 mm 0.00 in0.0 mm 0.01 in0.3 mm
04:20 AM 43.3°F6.3°C 35.6°F2.0°C 74% 8.4 mph WSW13.5 kmh WSW 11.4 mph18.3 kmh 29.57 in1001.4 mb 0.02 in0.5 mm 0.12 in3.0 mm 0.04 in1.0 mm
04:30 AM 42.8°F6.0°C 35.4°F1.9°C 75% 10.4 mph W16.7 kmh W 13.6 mph21.9 kmh 29.58 in1001.7 mb 0.02 in0.5 mm 0.00 in0.0 mm 0.04 in1.0 mm
04:50 AM 43.0°F6.1°C 36.3°F2.4°C 77% 8.5 mph SSW13.7 kmh SSW 10.7 mph17.2 kmh 29.58 in1001.7 mb 0.02 in0.5 mm 0.00 in0.0 mm 0.04 in1.0 mm
05:00 AM 43.5°F6.4°C 36.8°F2.7°C 77% 8.4 mph SW13.5 kmh SW 11.4 mph18.3 kmh 29.57 in1001.4 mb 0.02 in0.5 mm 0.00 in0.0 mm 0.04 in1.0 mm
05:10 AM 43.7°F6.5°C 36.6°F2.6°C 76% 7.8 mph SW12.6 kmh SW 9.8 mph15.8 kmh 29.59 in1002.0 mb 0.02 in0.5 mm 0.00 in0.0 mm 0.04 in1.0 mm
05:20 AM 43.5°F6.4°C 36.5°F2.5°C 76% 7.2 mph W11.6 kmh W 10.7 mph17.2 kmh 29.59 in1002.0 mb 0.00 in0.0 mm 0.00 in0.0 mm 0.04 in1.0 mm
05:30 AM 41.9°F5.5°C 34.9°F1.6°C 76% 9.2 mph WNW14.8 kmh WNW 15.2 mph24.5 kmh 29.59 in1002.0 mb 0.02 in0.5 mm 0.12 in3.0 mm 0.06 in1.5 mm
05:40 AM 42.4°F5.8°C 36.7°F2.6°C 80% 7.8 mph WNW12.6 kmh WNW 19.0 mph30.6 kmh 29.59 in1002.0 mb 0.04 in1.0 mm 0.12 in3.0 mm 0.07 in1.8 mm
05:50 AM 42.4°F5.8°C 36.1°F2.3°C 78% 14.7 mph S23.7 kmh S 20.6 mph33.2 kmh 29.59 in1002.0 mb 0.04 in1.0 mm 0.00 in0.0 mm 0.07 in1.8 mm
06:00 AM 42.3°F5.7°C 35.2°F1.8°C 76% 9.5 mph SW15.3 kmh SW 13.0 mph20.9 kmh 29.59 in1002.0 mb 0.04 in1.0 mm 0.00 in0.0 mm 0.07 in1.8 mm
06:10 AM 42.3°F5.7°C 35.2°F1.8°C 76% 7.3 mph SW11.7 kmh SW 10.7 mph17.2 kmh 29.61 in1002.7 mb 0.04 in1.0 mm 0.00 in0.0 mm 0.07 in1.8 mm
06:20 AM 42.4°F5.8°C 35.8°F2.1°C 77% 8.7 mph WSW14.0 kmh WSW 15.2 mph24.5 kmh 29.61 in1002.7 mb 0.04 in1.0 mm 0.00 in0.0 mm 0.07 in1.8 mm
06:30 AM 42.6°F5.9°C 36.3°F2.4°C 78% 10.0 mph W16.1 kmh W 12.1 mph19.5 kmh 29.61 in1002.7 mb 0.04 in1.0 mm 0.00 in0.0 mm 0.09 in2.3 mm
06:40 AM 41.9°F5.5°C 35.9°F2.2°C 79% 9.7 mph SW15.6 kmh SW 13.6 mph21.9 kmh 29.60 in1002.4 mb 0.04 in1.0 mm 0.00 in0.0 mm 0.11 in2.8 mm
06:50 AM 41.5°F5.3°C 35.8°F2.1°C 80% 8.0 mph SW12.9 kmh SW 13.0 mph20.9 kmh 29.61 in1002.7 mb 0.04 in1.0 mm 0.00 in0.0 mm 0.11 in2.8 mm
07:00 AM 41.4°F5.2°C 35.7°F2.1°C 80% 6.0 mph SSW9.7 kmh SSW 9.8 mph15.8 kmh 29.60 in1002.4 mb 0.04 in1.0 mm 0.00 in0.0 mm 0.11 in2.8 mm
07:10 AM 41.5°F5.3°C 36.2°F2.3°C 81% 8.0 mph SSW12.9 kmh SSW 11.4 mph18.3 kmh 29.60 in1002.4 mb 0.04 in1.0 mm 0.00 in0.0 mm 0.11 in2.8 mm
07:20 AM 41.5°F5.3°C 36.2°F2.3°C 81% 6.7 mph WSW10.8 kmh WSW 10.7 mph17.2 kmh 29.60 in1002.4 mb 0.04 in1.0 mm 0.00 in0.0 mm 0.11 in2.8 mm
07:30 AM 41.5°F5.3°C 36.2°F2.3°C 81% 6.1 mph SW9.8 kmh SW 10.7 mph17.2 kmh 29.61 in1002.7 mb 0.01 in0.3 mm 0.00 in0.0 mm 0.11 in2.8 mm
07:40 AM 41.7°F5.4°C 36.3°F2.4°C 81% 6.3 mph SW10.1 kmh SW 9.2 mph14.8 kmh 29.62 in1003.0 mb 0.00 in0.0 mm 0.00 in0.0 mm 0.11 in2.8 mm
07:50 AM 42.3°F5.7°C 36.9°F2.7°C 81% 9.9 mph W15.9 kmh W 13.0 mph20.9 kmh 29.62 in1003.0 mb 0.00 in0.0 mm 0.00 in0.0 mm 0.11 in2.8 mm
08:00 AM 42.8°F6.0°C 37.4°F3.0°C 81% 9.7 mph SW15.6 kmh SW 14.5 mph23.3 kmh 29.62 in1003.0 mb 0.01 in0.3 mm 0.01 in0.3 mm 0.12 in3.0 mm
08:10 AM 42.6°F5.9°C 36.9°F2.7°C 80% 7.2 mph WSW11.6 kmh WSW 11.4 mph18.3 kmh 29.62 in1003.0 mb 0.01 in0.3 mm 0.00 in0.0 mm 0.12 in3.0 mm
08:20 AM 42.6°F5.9°C 36.9°F2.7°C 80% 8.7 mph SW14.0 kmh SW 12.1 mph19.5 kmh 29.62 in1003.0 mb 0.01 in0.3 mm 0.00 in0.0 mm 0.12 in3.0 mm
08:30 AM 42.8°F6.0°C 37.1°F2.8°C 80% 8.4 mph SW13.5 kmh SW 12.1 mph19.5 kmh 29.63 in1003.4 mb 0.01 in0.3 mm 0.00 in0.0 mm 0.12 in3.0 mm
08:40 AM 42.8°F6.0°C 37.1°F2.8°C 80% 9.5 mph SSW15.3 kmh SSW 13.0 mph20.9 kmh 29.64 in1003.7 mb 0.01 in0.3 mm 0.00 in0.0 mm 0.12 in3.0 mm
08:50 AM 42.8°F6.0°C 37.1°F2.8°C 80% 6.7 mph WSW10.8 kmh WSW 9.8 mph15.8 kmh 29.64 in1003.7 mb 0.01 in0.3 mm 0.00 in0.0 mm 0.12 in3.0 mm
09:00 AM 42.8°F6.0°C 37.1°F2.8°C 80% 5.3 mph WSW8.5 kmh WSW 9.2 mph14.8 kmh 29.65 in1004.1 mb 0.00 in0.0 mm 0.00 in0.0 mm 0.12 in3.0 mm
09:10 AM 43.2°F6.2°C 37.4°F3.0°C 80% 7.3 mph SW11.7 kmh SW 10.7 mph17.2 kmh 29.65 in1004.1 mb 0.00 in0.0 mm 0.00 in0.0 mm 0.12 in3.0 mm
09:20 AM 43.3°F6.3°C 37.6°F3.1°C 80% 6.6 mph WSW10.6 kmh WSW 11.4 mph18.3 kmh 29.65 in1004.1 mb 0.00 in0.0 mm 0.00 in0.0 mm 0.12 in3.0 mm
09:30 AM 43.5°F6.4°C 37.8°F3.2°C 80% 6.9 mph SW11.1 kmh SW 9.2 mph14.8 kmh 29.65 in1004.1 mb 0.00 in0.0 mm 0.00 in0.0 mm 0.12 in3.0 mm
09:40 AM 44.1°F6.7°C 38.0°F3.3°C 79% 10.2 mph SW16.4 kmh SW 14.5 mph23.3 kmh 29.65 in1004.1 mb 0.00 in0.0 mm 0.00 in0.0 mm 0.12 in3.0 mm
09:50 AM 44.2°F6.8°C 37.5°F3.1°C 77% 10.5 mph SW16.9 kmh SW 16.8 mph27.0 kmh 29.65 in1004.1 mb 0.00 in0.0 mm 0.00 in0.0 mm 0.12 in3.0 mm
10:00 AM 44.4°F6.9°C 37.7°F3.2°C 77% 10.5 mph SW16.9 kmh SW 14.5 mph23.3 kmh 29.65 in1004.1 mb 0.00 in0.0 mm 0.00 in0.0 mm 0.12 in3.0 mm
10:10 AM 44.8°F7.1°C 37.7°F3.2°C 76% 9.7 mph S15.6 kmh S 14.5 mph23.3 kmh 29.64 in1003.7 mb 0.00 in0.0 mm 0.00 in0.0 mm 0.12 in3.0 mm
10:20 AM 46.0°F7.8°C 37.2°F2.9°C 71% 9.9 mph W15.9 kmh W 15.2 mph24.5 kmh 29.66 in1004.4 mb 0.00 in0.0 mm 0.00 in0.0 mm 0.12 in3.0 mm
10:30 AM 47.8°F8.8°C 38.2°F3.4°C 69% 8.6 mph SW13.8 kmh SW 11.4 mph18.3 kmh 29.66 in1004.4 mb 0.00 in0.0 mm 0.00 in0.0 mm 0.12 in3.0 mm
10:40 AM 48.2°F9.0°C 37.4°F3.0°C 66% 9.6 mph SW15.4 kmh SW 15.9 mph25.6 kmh 29.66 in1004.4 mb 0.00 in0.0 mm 0.00 in0.0 mm 0.12 in3.0 mm
10:50 AM 48.6°F9.2°C 37.3°F2.9°C 65% 9.3 mph WSW15.0 kmh WSW 13.6 mph21.9 kmh 29.66 in1004.4 mb 0.00 in0.0 mm 0.00 in0.0 mm 0.12 in3.0 mm
11:00 AM 48.0°F8.9°C 37.2°F2.9°C 66% 9.6 mph SW15.4 kmh SW 12.1 mph19.5 kmh 29.66 in1004.4 mb 0.00 in0.0 mm 0.00 in0.0 mm 0.12 in3.0 mm
11:10 AM 48.7°F9.3°C 37.5°F3.1°C 65% 8.9 mph W14.3 kmh W 13.6 mph21.9 kmh 29.67 in1004.7 mb 0.00 in0.0 mm 0.00 in0.0 mm 0.12 in3.0 mm
11:20 AM 50.0°F10.0°C 37.5°F3.1°C 62% 10.6 mph SW17.1 kmh SW 14.5 mph23.3 kmh 29.67 in1004.7 mb 0.00 in0.0 mm 0.00 in0.0 mm 0.12 in3.0 mm
11:30 AM 50.2°F10.1°C 37.3°F2.9°C 61% 12.5 mph SW20.1 kmh SW 19.0 mph30.6 kmh 29.67 in1004.7 mb 0.00 in0.0 mm 0.00 in0.0 mm 0.12 in3.0 mm
11:40 AM 48.2°F9.0°C 36.2°F2.3°C 63% 11.1 mph SW17.9 kmh SW 18.3 mph29.5 kmh 29.66 in1004.4 mb 0.00 in0.0 mm 0.00 in0.0 mm 0.12 in3.0 mm
11:50 AM 48.6°F9.2°C 36.9°F2.7°C 64% 9.8 mph SW15.8 kmh SW 13.0 mph20.9 kmh 29.68 in1005.1 mb 0.00 in0.0 mm 0.00 in0.0 mm 0.12 in3.0 mm
12:00 PM 50.5°F10.3°C 37.6°F3.1°C 61% 9.2 mph W14.8 kmh W 17.4 mph28.0 kmh 29.68 in1005.1 mb 0.00 in0.0 mm 0.00 in0.0 mm 0.12 in3.0 mm
12:10 PM 49.8°F9.9°C 37.7°F3.2°C 63% 9.7 mph WNW15.6 kmh WNW 13.6 mph21.9 kmh 29.68 in1005.1 mb 0.00 in0.0 mm 0.00 in0.0 mm 0.12 in3.0 mm
12:20 PM 51.3°F10.7°C 38.3°F3.5°C 61% 6.9 mph WSW11.1 kmh WSW 11.4 mph18.3 kmh 29.68 in1005.1 mb 0.00 in0.0 mm 0.00 in0.0 mm 0.12 in3.0 mm
12:30 PM 51.3°F10.7°C 37.9°F3.3°C 60% 8.2 mph SW13.2 kmh SW 11.4 mph18.3 kmh 29.68 in1005.1 mb 0.00 in0.0 mm 0.00 in0.0 mm 0.12 in3.0 mm
12:40 PM 51.3°F10.7°C 37.4°F3.0°C 59% 10.6 mph SW17.1 kmh SW 14.5 mph23.3 kmh 29.69 in1005.4 mb 0.00 in0.0 mm 0.00 in0.0 mm 0.12 in3.0 mm
12:50 PM 49.3°F9.6°C 34.7°F1.5°C 57% 11.9 mph W19.2 kmh W 15.9 mph25.6 kmh 29.69 in1005.4 mb 0.00 in0.0 mm 0.00 in0.0 mm 0.12 in3.0 mm
01:00 PM 47.8°F8.8°C 34.6°F1.4°C 60% 10.2 mph W16.4 kmh W 15.2 mph24.5 kmh 29.70 in1005.8 mb 0.00 in0.0 mm 0.00 in0.0 mm 0.12 in3.0 mm
01:10 PM 50.4°F10.2°C 37.0°F2.8°C 60% 5.6 mph WSW9.0 kmh WSW 9.8 mph15.8 kmh 29.69 in1005.4 mb 0.00 in0.0 mm 0.00 in0.0 mm 0.12 in3.0 mm
01:20 PM 51.6°F10.9°C 36.9°F2.7°C 57% 3.2 mph SW5.1 kmh SW 13.6 mph21.9 kmh 29.69 in1005.4 mb 0.00 in0.0 mm 0.00 in0.0 mm 0.12 in3.0 mm
01:30 PM 51.6°F10.9°C 36.0°F2.2°C 55% 5.5 mph WSW8.9 kmh WSW 15.9 mph25.6 kmh 29.69 in1005.4 mb 0.00 in0.0 mm 0.00 in0.0 mm 0.12 in3.0 mm
01:40 PM 51.6°F10.9°C 36.4°F2.4°C 56% 6.1 mph WSW9.8 kmh WSW 15.9 mph25.6 kmh 29.69 in1005.4 mb 0.00 in0.0 mm 0.00 in0.0 mm 0.12 in3.0 mm
01:50 PM 51.1°F10.6°C 36.4°F2.4°C 57% 7.7 mph WSW12.4 kmh WSW 13.0 mph20.9 kmh 29.69 in1005.4 mb 0.00 in0.0 mm 0.00 in0.0 mm 0.12 in3.0 mm
02:00 PM 52.0°F11.1°C 35.9°F2.2°C 54% 4.2 mph WSW6.8 kmh WSW 15.9 mph25.6 kmh 29.69 in1005.4 mb 0.00 in0.0 mm 0.00 in0.0 mm 0.12 in3.0 mm
02:10 PM 50.0°F10.0°C 34.9°F1.6°C 56% 4.6 mph WNW7.4 kmh WNW 13.0 mph20.9 kmh 29.68 in1005.1 mb 0.00 in0.0 mm 0.00 in0.0 mm 0.12 in3.0 mm
02:20 PM 50.2°F10.1°C 36.4°F2.4°C 59% 2.0 mph SW3.2 kmh SW 6.9 mph11.1 kmh 29.69 in1005.4 mb 0.00 in0.0 mm 0.00 in0.0 mm 0.12 in3.0 mm
02:30 PM 50.7°F10.4°C 36.9°F2.7°C 59% 2.0 mph SW3.2 kmh SW 10.7 mph17.2 kmh 29.69 in1005.4 mb 0.00 in0.0 mm 0.00 in0.0 mm 0.12 in3.0 mm
02:40 PM 51.3°F10.7°C 35.7°F2.1°C 55% 3.8 mph SW6.1 kmh SW 9.2 mph14.8 kmh 29.69 in1005.4 mb 0.00 in0.0 mm 0.00 in0.0 mm 0.12 in3.0 mm
02:50 PM 50.0°F10.0°C 35.4°F1.9°C 57% 3.3 mph SW5.3 kmh SW 9.2 mph14.8 kmh 29.69 in1005.4 mb 0.00 in0.0 mm 0.00 in0.0 mm 0.12 in3.0 mm
03:00 PM 48.9°F9.4°C 34.4°F1.3°C 57% 2.4 mph NW3.9 kmh NW 7.6 mph12.2 kmh 29.69 in1005.4 mb 0.00 in0.0 mm 0.00 in0.0 mm 0.12 in3.0 mm
03:10 PM 48.9°F9.4°C 35.2°F1.8°C 59% 0.2 mph WNW0.3 kmh WNW 0.7 mph1.1 kmh 29.69 in1005.4 mb 0.00 in0.0 mm 0.00 in0.0 mm 0.12 in3.0 mm
03:20 PM 48.6°F9.2°C 35.3°F1.8°C 60% 0.7 mph W1.1 kmh W 3.8 mph6.1 kmh 29.69 in1005.4 mb 0.00 in0.0 mm 0.00 in0.0 mm 0.12 in3.0 mm
03:30 PM 48.0°F8.9°C 35.6°F2.0°C 62% Calm Calm -- 29.69 in1005.4 mb 0.00 in0.0 mm 0.00 in0.0 mm 0.12 in3.0 mm
03:40 PM 48.0°F8.9°C 36.0°F2.2°C 63% 2.6 mph SE4.2 kmh SE 8.3 mph13.4 kmh 29.70 in1005.8 mb 0.00 in0.0 mm 0.00 in0.0 mm 0.12 in3.0 mm
03:50 PM 48.4°F9.1°C 36.8°F2.7°C 64% 2.7 mph SW4.3 kmh SW 6.9 mph11.1 kmh 29.70 in1005.8 mb 0.00 in0.0 mm 0.00 in0.0 mm 0.12 in3.0 mm
04:00 PM 48.0°F8.9°C 36.0°F2.2°C 63% 4.7 mph SW7.6 kmh SW 8.3 mph13.4 kmh 29.69 in1005.4 mb 0.00 in0.0 mm 0.00 in0.0 mm 0.12 in3.0 mm
04:10 PM 47.8°F8.8°C 35.5°F1.9°C 62% 8.1 mph SW13.0 kmh SW 11.4 mph18.3 kmh 29.69 in1005.4 mb 0.00 in0.0 mm 0.00 in0.0 mm 0.12 in3.0 mm
04:20 PM 47.8°F8.8°C 35.5°F1.9°C 62% 5.6 mph WSW9.0 kmh WSW 7.6 mph12.2 kmh 29.70 in1005.8 mb 0.00 in0.0 mm 0.00 in0.0 mm 0.12 in3.0 mm
04:30 PM 47.5°F8.6°C 35.5°F1.9°C 63% 6.6 mph WSW10.6 kmh WSW 9.8 mph15.8 kmh 29.69 in1005.4 mb 0.00 in0.0 mm 0.00 in0.0 mm 0.12 in3.0 mm
04:40 PM 47.5°F8.6°C 35.5°F1.9°C 63% 6.2 mph SW10.0 kmh SW 8.3 mph13.4 kmh 29.69 in1005.4 mb 0.00 in0.0 mm 0.00 in0.0 mm 0.12 in3.0 mm
04:50 PM 47.1°F8.4°C 35.6°F2.0°C 64% 5.1 mph WSW8.2 kmh WSW 7.6 mph12.2 kmh 29.69 in1005.4 mb 0.00 in0.0 mm 0.00 in0.0 mm 0.12 in3.0 mm
05:00 PM 46.9°F8.3°C 35.4°F1.9°C 64% 5.2 mph SW8.4 kmh SW 9.2 mph14.8 kmh 29.69 in1005.4 mb 0.00 in0.0 mm 0.00 in0.0 mm 0.12 in3.0 mm
05:10 PM 46.6°F8.1°C 35.5°F1.9°C 65% 5.1 mph SW8.2 kmh SW 8.3 mph13.4 kmh 29.69 in1005.4 mb 0.00 in0.0 mm 0.00 in0.0 mm 0.12 in3.0 mm
05:20 PM 46.4°F8.0°C 35.7°F2.1°C 66% 5.2 mph SSW8.4 kmh SSW 7.6 mph12.2 kmh 29.69 in1005.4 mb 0.00 in0.0 mm 0.00 in0.0 mm 0.12 in3.0 mm
05:30 PM 46.2°F7.9°C 35.5°F1.9°C 66% 4.6 mph SSW7.4 kmh SSW 9.8 mph15.8 kmh 29.69 in1005.4 mb 0.00 in0.0 mm 0.00 in0.0 mm 0.12 in3.0 mm
05:40 PM 46.0°F7.8°C 35.7°F2.1°C 67% 6.3 mph WSW10.1 kmh WSW 9.2 mph14.8 kmh 29.68 in1005.1 mb 0.00 in0.0 mm 0.00 in0.0 mm 0.12 in3.0 mm
05:50 PM 46.2°F7.9°C 35.9°F2.2°C 67% 6.9 mph SW11.1 kmh SW 8.3 mph13.4 kmh 29.69 in1005.4 mb 0.00 in0.0 mm 0.00 in0.0 mm 0.12 in3.0 mm
06:00 PM 45.7°F7.6°C 35.4°F1.9°C 67% 4.6 mph SW7.4 kmh SW 6.0 mph9.7 kmh 29.70 in1005.8 mb 0.00 in0.0 mm 0.00 in0.0 mm 0.12 in3.0 mm
06:10 PM 45.3°F7.4°C 36.8°F2.7°C 72% 5.0 mph WSW8.0 kmh WSW 6.9 mph11.1 kmh 29.69 in1005.4 mb 0.00 in0.0 mm 0.00 in0.0 mm 0.12 in3.0 mm
06:20 PM 45.1°F7.3°C 36.7°F2.6°C 72% 5.0 mph S8.0 kmh S 7.6 mph12.2 kmh 29.70 in1005.8 mb 0.00 in0.0 mm 0.00 in0.0 mm 0.12 in3.0 mm
06:30 PM 45.1°F7.3°C 37.0°F2.8°C 73% 4.9 mph SSW7.9 kmh SSW 7.6 mph12.2 kmh 29.70 in1005.8 mb 0.00 in0.0 mm 0.00 in0.0 mm 0.12 in3.0 mm
06:40 PM 45.0°F7.2°C 37.2°F2.9°C 74% 4.0 mph SSW6.4 kmh SSW 6.0 mph9.7 kmh 29.70 in1005.8 mb 0.00 in0.0 mm 0.00 in0.0 mm 0.12 in3.0 mm
06:50 PM 45.0°F7.2°C 37.5°F3.1°C 75% 5.0 mph SW8.0 kmh SW 6.9 mph11.1 kmh 29.70 in1005.8 mb 0.00 in0.0 mm 0.00 in0.0 mm 0.12 in3.0 mm
07:00 PM 45.0°F7.2°C 37.9°F3.3°C 76% 5.8 mph S9.3 kmh S 9.8 mph15.8 kmh 29.70 in1005.8 mb 0.00 in0.0 mm 0.00 in0.0 mm 0.12 in3.0 mm
07:10 PM 45.1°F7.3°C 38.0°F3.3°C 76% 6.5 mph SSW10.5 kmh SSW 10.7 mph17.2 kmh 29.69 in1005.4 mb 0.00 in0.0 mm 0.00 in0.0 mm 0.12 in3.0 mm
07:20 PM 44.8°F7.1°C 37.7°F3.2°C 76% 4.4 mph SSW7.1 kmh SSW 6.0 mph9.7 kmh 29.70 in1005.8 mb 0.00 in0.0 mm 0.00 in0.0 mm 0.12 in3.0 mm
07:30 PM 44.6°F7.0°C 37.8°F3.2°C 77% 5.6 mph S9.0 kmh S 8.3 mph13.4 kmh 29.69 in1005.4 mb 0.00 in0.0 mm 0.00 in0.0 mm 0.12 in3.0 mm
07:40 PM 44.4°F6.9°C 38.0°F3.3°C 78% 5.0 mph SSW8.0 kmh SSW 6.0 mph9.7 kmh 29.69 in1005.4 mb 0.00 in0.0 mm 0.00 in0.0 mm 0.12 in3.0 mm
07:50 PM 44.4°F6.9°C 38.3°F3.5°C 79% 5.4 mph S8.7 kmh S 7.6 mph12.2 kmh 29.70 in1005.8 mb 0.00 in0.0 mm 0.00 in0.0 mm 0.12 in3.0 mm
08:00 PM 44.4°F6.9°C 38.3°F3.5°C 79% 5.3 mph SW8.5 kmh SW 6.9 mph11.1 kmh 29.69 in1005.4 mb 0.00 in0.0 mm 0.00 in0.0 mm 0.12 in3.0 mm
08:10 PM 44.6°F7.0°C 38.5°F3.6°C 79% 6.1 mph SSW9.8 kmh SSW 8.3 mph13.4 kmh 29.69 in1005.4 mb 0.00 in0.0 mm 0.00 in0.0 mm 0.12 in3.0 mm
08:20 PM 44.8°F7.1°C 38.7°F3.7°C 79% 5.0 mph SSW8.0 kmh SSW 7.6 mph12.2 kmh 29.69 in1005.4 mb 0.01 in0.3 mm 0.06 in1.5 mm 0.13 in3.3 mm
08:30 PM 45.1°F7.3°C 38.7°F3.7°C 78% 6.7 mph SSW10.8 kmh SSW 8.3 mph13.4 kmh 29.69 in1005.4 mb 0.01 in0.3 mm 0.00 in0.0 mm 0.13 in3.3 mm
08:40 PM 45.3°F7.4°C 38.9°F3.8°C 78% 7.1 mph S11.4 kmh S 11.4 mph18.3 kmh 29.69 in1005.4 mb 0.01 in0.3 mm 0.00 in0.0 mm 0.13 in3.3 mm
08:50 PM 45.7°F7.6°C 37.2°F2.9°C 72% 6.8 mph S10.9 kmh S 9.2 mph14.8 kmh 29.68 in1005.1 mb 0.01 in0.3 mm 0.00 in0.0 mm 0.13 in3.3 mm
09:00 PM 45.7°F7.6°C 36.8°F2.7°C 71% 7.6 mph S12.2 kmh S 9.8 mph15.8 kmh 29.68 in1005.1 mb 0.01 in0.3 mm 0.00 in0.0 mm 0.13 in3.3 mm
09:10 PM 45.9°F7.7°C 37.0°F2.8°C 71% 6.6 mph SSW10.6 kmh SSW 9.2 mph14.8 kmh 29.68 in1005.1 mb 0.01 in0.3 mm 0.00 in0.0 mm 0.13 in3.3 mm
09:20 PM 45.7°F7.6°C 37.2°F2.9°C 72% 6.2 mph S10.0 kmh S 10.7 mph17.2 kmh 29.68 in1005.1 mb 0.00 in0.0 mm 0.00 in0.0 mm 0.13 in3.3 mm
09:30 PM 46.0°F7.8°C 37.5°F3.1°C 72% 7.2 mph SSW11.6 kmh SSW 9.8 mph15.8 kmh 29.68 in1005.1 mb 0.00 in0.0 mm 0.00 in0.0 mm 0.13 in3.3 mm
09:40 PM 46.0°F7.8°C 37.9°F3.3°C 73% 7.6 mph SSW12.2 kmh SSW 9.8 mph15.8 kmh 29.67 in1004.7 mb 0.00 in0.0 mm 0.00 in0.0 mm 0.13 in3.3 mm
09:50 PM 46.2°F7.9°C 38.4°F3.6°C 74% 7.5 mph SSW12.1 kmh SSW 10.7 mph17.2 kmh 29.68 in1005.1 mb 0.00 in0.0 mm 0.00 in0.0 mm 0.13 in3.3 mm
10:00 PM 46.2°F7.9°C 38.4°F3.6°C 74% 7.0 mph SSW11.3 kmh SSW 10.7 mph17.2 kmh 29.67 in1004.7 mb 0.00 in0.0 mm 0.00 in0.0 mm 0.13 in3.3 mm
10:10 PM 46.2°F7.9°C 38.7°F3.7°C 75% 8.1 mph S13.0 kmh S 9.8 mph15.8 kmh 29.68 in1005.1 mb 0.00 in0.0 mm 0.00 in0.0 mm 0.13 in3.3 mm
10:20 PM 46.2°F7.9°C 38.7°F3.7°C 75% 6.5 mph S10.5 kmh S 9.2 mph14.8 kmh 29.68 in1005.1 mb 0.00 in0.0 mm 0.00 in0.0 mm 0.13 in3.3 mm
10:30 PM 46.2°F7.9°C 38.7°F3.7°C 75% 6.0 mph S9.7 kmh S 6.0 mph9.7 kmh 29.68 in1005.1 mb 0.00 in0.0 mm 0.00 in0.0 mm 0.13 in3.3 mm
10:40 PM 46.2°F7.9°C 38.7°F3.7°C 75% 6.0 mph S9.7 kmh S 6.0 mph9.7 kmh 29.67 in1004.7 mb 0.00 in0.0 mm 0.00 in0.0 mm 0.13 in3.3 mm
10:50 PM 46.2°F7.9°C 38.7°F3.7°C 75% 6.0 mph S9.7 kmh S 6.0 mph9.7 kmh 29.67 in1004.7 mb 0.00 in0.0 mm 0.00 in0.0 mm 0.13 in3.3 mm
11:00 PM 46.2°F7.9°C 38.7°F3.7°C 75% 6.0 mph S9.7 kmh S 6.0 mph9.7 kmh 29.66 in1004.4 mb 0.00 in0.0 mm 0.00 in0.0 mm 0.13 in3.3 mm
11:10 PM 46.2°F7.9°C 38.7°F3.7°C 75% 6.0 mph S9.7 kmh S 6.0 mph9.7 kmh 29.66 in1004.4 mb 0.00 in0.0 mm 0.00 in0.0 mm 0.13 in3.3 mm
11:20 PM 46.2°F7.9°C 38.7°F3.7°C 75% 6.0 mph S9.7 kmh S 6.0 mph9.7 kmh 29.65 in1004.1 mb 0.00 in0.0 mm 0.00 in0.0 mm 0.13 in3.3 mm
11:30 PM 46.2°F7.9°C 38.7°F3.7°C 75% 6.0 mph S9.7 kmh S 6.0 mph9.7 kmh 29.65 in1004.1 mb 0.00 in0.0 mm 0.00 in0.0 mm 0.13 in3.3 mm
11:40 PM 46.2°F7.9°C 38.7°F3.7°C 75% 6.0 mph S9.7 kmh S 6.0 mph9.7 kmh 29.65 in1004.1 mb 0.00 in0.0 mm 0.00 in0.0 mm 0.13 in3.3 mm
11:50 PM 46.2°F7.9°C 38.7°F3.7°C 75% 6.0 mph S9.7 kmh S 6.0 mph9.7 kmh 29.64 in1003.7 mb 0.00 in0.0 mm 0.00 in0.0 mm 0.13 in3.3 mm